sensor_id;sensor_type;location;lat;lon;timestamp;temperature;humidity
12578;DHT22;6354;51.026;8.968;2022-11-20T00:01:05;-4.60;99.90
12578;DHT22;6354;51.026;8.968;2022-11-20T00:03:33;-4.60;99.90
12578;DHT22;6354;51.026;8.968;2022-11-20T00:06:05;-4.60;99.90
12578;DHT22;6354;51.026;8.968;2022-11-20T00:08:33;-4.70;99.90
12578;DHT22;6354;51.026;8.968;2022-11-20T00:11:03;-4.60;99.90
12578;DHT22;6354;51.026;8.968;2022-11-20T00:13:32;-4.60;99.90
12578;DHT22;6354;51.026;8.968;2022-11-20T00:16:02;-4.60;99.90
12578;DHT22;6354;51.026;8.968;2022-11-20T00:18:32;-4.60;99.90
12578;DHT22;6354;51.026;8.968;2022-11-20T00:21:01;-4.60;99.90
12578;DHT22;6354;51.026;8.968;2022-11-20T00:23:32;-4.60;99.90
12578;DHT22;6354;51.026;8.968;2022-11-20T00:26:02;-4.60;99.90
12578;DHT22;6354;51.026;8.968;2022-11-20T00:28:30;-4.60;99.90
12578;DHT22;6354;51.026;8.968;2022-11-20T00:31:03;-4.70;99.90
12578;DHT22;6354;51.026;8.968;2022-11-20T00:33:32;-4.60;99.90
12578;DHT22;6354;51.026;8.968;2022-11-20T00:36:00;-4.60;99.90
12578;DHT22;6354;51.026;8.968;2022-11-20T00:38:31;-4.60;99.90
12578;DHT22;6354;51.026;8.968;2022-11-20T00:41:00;-4.60;99.90
12578;DHT22;6354;51.026;8.968;2022-11-20T00:43:29;-4.70;99.90
12578;DHT22;6354;51.026;8.968;2022-11-20T00:45:57;-4.70;99.90
12578;DHT22;6354;51.026;8.968;2022-11-20T00:48:26;-4.60;99.90
12578;DHT22;6354;51.026;8.968;2022-11-20T00:50:55;-4.60;99.90
12578;DHT22;6354;51.026;8.968;2022-11-20T00:53:23;-4.60;99.90
12578;DHT22;6354;51.026;8.968;2022-11-20T00:55:57;-4.70;99.90
12578;DHT22;6354;51.026;8.968;2022-11-20T00:58:29;-4.70;99.90
12578;DHT22;6354;51.026;8.968;2022-11-20T01:01:01;-4.70;99.90
12578;DHT22;6354;51.026;8.968;2022-11-20T01:03:31;-4.70;99.90
12578;DHT22;6354;51.026;8.968;2022-11-20T01:06:00;-4.70;99.90
12578;DHT22;6354;51.026;8.968;2022-11-20T01:08:30;-4.70;99.90
12578;DHT22;6354;51.026;8.968;2022-11-20T01:11:01;-4.70;99.90
12578;DHT22;6354;51.026;8.968;2022-11-20T01:13:30;-4.80;99.90
12578;DHT22;6354;51.026;8.968;2022-11-20T01:16:05;-4.70;99.90
12578;DHT22;6354;51.026;8.968;2022-11-20T01:18:34;-4.80;99.90
12578;DHT22;6354;51.026;8.968;2022-11-20T01:21:03;-4.80;99.90
12578;DHT22;6354;51.026;8.968;2022-11-20T01:23:32;-4.70;99.90
12578;DHT22;6354;51.026;8.968;2022-11-20T01:26:03;-4.70;99.90
12578;DHT22;6354;51.026;8.968;2022-11-20T01:28:32;-4.80;99.90
12578;DHT22;6354;51.026;8.968;2022-11-20T01:31:00;-4.70;99.90
12578;DHT22;6354;51.026;8.968;2022-11-20T01:33:28;-4.70;99.90
12578;DHT22;6354;51.026;8.968;2022-11-20T01:36:03;-4.70;99.90
12578;DHT22;6354;51.026;8.968;2022-11-20T01:38:32;-4.80;99.90
12578;DHT22;6354;51.026;8.968;2022-11-20T01:41:00;-4.80;99.90
12578;DHT22;6354;51.026;8.968;2022-11-20T01:43:30;-4.80;99.90
12578;DHT22;6354;51.026;8.968;2022-11-20T01:46:03;-4.70;99.90
12578;DHT22;6354;51.026;8.968;2022-11-20T01:48:38;-4.70;99.90
12578;DHT22;6354;51.026;8.968;2022-11-20T01:51:13;-4.70;99.90
12578;DHT22;6354;51.026;8.968;2022-11-20T01:53:43;-4.60;99.90
12578;DHT22;6354;51.026;8.968;2022-11-20T01:56:12;-4.50;99.90
12578;DHT22;6354;51.026;8.968;2022-11-20T01:58:47;-4.40;99.90
12578;DHT22;6354;51.026;8.968;2022-11-20T02:01:16;-4.40;99.90
12578;DHT22;6354;51.026;8.968;2022-11-20T02:03:45;-4.30;99.90
12578;DHT22;6354;51.026;8.968;2022-11-20T02:06:17;-4.10;99.90
12578;DHT22;6354;51.026;8.968;2022-11-20T02:08:47;-4.00;99.90
12578;DHT22;6354;51.026;8.968;2022-11-20T02:11:15;-3.90;99.90
12578;DHT22;6354;51.026;8.968;2022-11-20T02:13:44;-3.70;99.90
12578;DHT22;6354;51.026;8.968;2022-11-20T02:16:15;-3.70;99.90
12578;DHT22;6354;51.026;8.968;2022-11-20T02:18:44;-3.70;99.90
12578;DHT22;6354;51.026;8.968;2022-11-20T02:21:28;-3.70;99.90
12578;DHT22;6354;51.026;8.968;2022-11-20T02:24:04;-3.70;99.90
12578;DHT22;6354;51.026;8.968;2022-11-20T02:26:37;-3.70;99.90
12578;DHT22;6354;51.026;8.968;2022-11-20T02:29:06;-3.60;99.90
12578;DHT22;6354;51.026;8.968;2022-11-20T02:31:40;-3.60;99.90
12578;DHT22;6354;51.026;8.968;2022-11-20T02:34:08;-3.50;99.90
12578;DHT22;6354;51.026;8.968;2022-11-20T02:36:38;-3.50;99.90
12578;DHT22;6354;51.026;8.968;2022-11-20T02:39:10;-3.30;99.90
12578;DHT22;6354;51.026;8.968;2022-11-20T02:41:39;-3.20;99.90
12578;DHT22;6354;51.026;8.968;2022-11-20T02:44:07;-3.10;99.90
12578;DHT22;6354;51.026;8.968;2022-11-20T02:46:35;-3.00;99.90
12578;DHT22;6354;51.026;8.968;2022-11-20T02:49:03;-2.90;99.90
12578;DHT22;6354;51.026;8.968;2022-11-20T02:51:31;-2.90;99.90
12578;DHT22;6354;51.026;8.968;2022-11-20T02:54:00;-2.90;99.90
12578;DHT22;6354;51.026;8.968;2022-11-20T02:56:30;-2.80;99.90
12578;DHT22;6354;51.026;8.968;2022-11-20T02:58:58;-2.70;99.90
12578;DHT22;6354;51.026;8.968;2022-11-20T03:01:26;-2.70;99.90
12578;DHT22;6354;51.026;8.968;2022-11-20T03:03:54;-2.60;99.90
12578;DHT22;6354;51.026;8.968;2022-11-20T03:06:22;-2.60;99.90
12578;DHT22;6354;51.026;8.968;2022-11-20T03:08:50;-2.50;99.90
12578;DHT22;6354;51.026;8.968;2022-11-20T03:11:18;-2.50;99.90
12578;DHT22;6354;51.026;8.968;2022-11-20T03:13:48;-2.40;99.90
12578;DHT22;6354;51.026;8.968;2022-11-20T03:16:17;-2.40;99.90
12578;DHT22;6354;51.026;8.968;2022-11-20T03:18:46;-2.30;99.90
12578;DHT22;6354;51.026;8.968;2022-11-20T03:21:14;-2.30;99.90
12578;DHT22;6354;51.026;8.968;2022-11-20T03:23:43;-2.20;99.90
12578;DHT22;6354;51.026;8.968;2022-11-20T03:26:13;-2.20;99.90
12578;DHT22;6354;51.026;8.968;2022-11-20T03:28:42;-2.10;99.90
12578;DHT22;6354;51.026;8.968;2022-11-20T03:31:14;-2.10;99.90
12578;DHT22;6354;51.026;8.968;2022-11-20T03:33:42;-2.10;99.90
12578;DHT22;6354;51.026;8.968;2022-11-20T03:36:13;-2.10;99.90
12578;DHT22;6354;51.026;8.968;2022-11-20T03:38:41;-2.10;99.90
12578;DHT22;6354;51.026;8.968;2022-11-20T03:41:12;-2.00;99.90
12578;DHT22;6354;51.026;8.968;2022-11-20T03:43:40;-2.00;99.90
12578;DHT22;6354;51.026;8.968;2022-11-20T03:46:08;-2.00;99.90
12578;DHT22;6354;51.026;8.968;2022-11-20T03:48:37;-1.90;99.90
12578;DHT22;6354;51.026;8.968;2022-11-20T03:51:10;-1.90;99.90
12578;DHT22;6354;51.026;8.968;2022-11-20T03:53:39;-1.90;99.90
12578;DHT22;6354;51.026;8.968;2022-11-20T03:56:08;-1.80;99.90
12578;DHT22;6354;51.026;8.968;2022-11-20T03:58:38;-1.80;99.90
12578;DHT22;6354;51.026;8.968;2022-11-20T04:01:08;-1.80;99.90
12578;DHT22;6354;51.026;8.968;2022-11-20T04:03:38;-1.70;99.90
12578;DHT22;6354;51.026;8.968;2022-11-20T04:06:08;-1.70;99.90
12578;DHT22;6354;51.026;8.968;2022-11-20T04:08:37;-1.60;99.90
12578;DHT22;6354;51.026;8.968;2022-11-20T04:11:10;-1.50;99.90
12578;DHT22;6354;51.026;8.968;2022-11-20T04:13:39;-1.50;99.90
12578;DHT22;6354;51.026;8.968;2022-11-20T04:16:09;-1.40;99.90
12578;DHT22;6354;51.026;8.968;2022-11-20T04:18:38;-1.40;99.90
12578;DHT22;6354;51.026;8.968;2022-11-20T04:21:07;-1.30;99.90
12578;DHT22;6354;51.026;8.968;2022-11-20T04:23:35;-1.30;99.90
12578;DHT22;6354;51.026;8.968;2022-11-20T04:26:05;-1.30;99.90
12578;DHT22;6354;51.026;8.968;2022-11-20T04:28:33;-1.40;99.90
12578;DHT22;6354;51.026;8.968;2022-11-20T04:31:03;-1.50;99.90
12578;DHT22;6354;51.026;8.968;2022-11-20T04:33:31;-1.40;99.90
12578;DHT22;6354;51.026;8.968;2022-11-20T04:36:03;-1.40;99.90
12578;DHT22;6354;51.026;8.968;2022-11-20T04:38:32;-1.40;99.90
12578;DHT22;6354;51.026;8.968;2022-11-20T04:41:01;-1.40;99.90
12578;DHT22;6354;51.026;8.968;2022-11-20T04:43:30;-1.40;99.90
12578;DHT22;6354;51.026;8.968;2022-11-20T04:45:59;-1.40;99.90
12578;DHT22;6354;51.026;8.968;2022-11-20T04:48:28;-1.40;99.90
12578;DHT22;6354;51.026;8.968;2022-11-20T04:50:56;-1.40;99.90
12578;DHT22;6354;51.026;8.968;2022-11-20T04:53:26;-1.40;99.90
12578;DHT22;6354;51.026;8.968;2022-11-20T04:55:59;-1.30;99.90
12578;DHT22;6354;51.026;8.968;2022-11-20T04:58:28;-1.30;99.90
12578;DHT22;6354;51.026;8.968;2022-11-20T05:01:01;-1.30;99.90
12578;DHT22;6354;51.026;8.968;2022-11-20T05:03:29;-1.20;99.90
12578;DHT22;6354;51.026;8.968;2022-11-20T05:06:00;-1.20;99.90
12578;DHT22;6354;51.026;8.968;2022-11-20T05:08:30;-1.20;99.90
12578;DHT22;6354;51.026;8.968;2022-11-20T05:11:01;-1.20;99.90
12578;DHT22;6354;51.026;8.968;2022-11-20T05:13:30;-1.30;99.90
12578;DHT22;6354;51.026;8.968;2022-11-20T05:16:01;-1.30;99.90
12578;DHT22;6354;51.026;8.968;2022-11-20T05:18:30;-1.30;99.90
12578;DHT22;6354;51.026;8.968;2022-11-20T05:20:58;-1.30;99.90
12578;DHT22;6354;51.026;8.968;2022-11-20T05:23:28;-1.20;99.90
12578;DHT22;6354;51.026;8.968;2022-11-20T05:25:57;-1.30;99.90
12578;DHT22;6354;51.026;8.968;2022-11-20T05:28:26;-1.20;99.90
12578;DHT22;6354;51.026;8.968;2022-11-20T05:30:54;-1.10;99.90
12578;DHT22;6354;51.026;8.968;2022-11-20T05:33:23;-1.10;99.90
12578;DHT22;6354;51.026;8.968;2022-11-20T05:35:50;-1.10;99.90
12578;DHT22;6354;51.026;8.968;2022-11-20T05:38:19;-1.00;99.90
12578;DHT22;6354;51.026;8.968;2022-11-20T05:40:48;-1.00;99.90
12578;DHT22;6354;51.026;8.968;2022-11-20T05:43:16;-1.00;99.90
12578;DHT22;6354;51.026;8.968;2022-11-20T05:45:52;-0.90;99.90
12578;DHT22;6354;51.026;8.968;2022-11-20T05:48:20;-1.00;99.90
12578;DHT22;6354;51.026;8.968;2022-11-20T05:50:48;-1.00;99.90
12578;DHT22;6354;51.026;8.968;2022-11-20T05:53:16;-0.90;99.90
12578;DHT22;6354;51.026;8.968;2022-11-20T05:55:44;-0.90;99.90
12578;DHT22;6354;51.026;8.968;2022-11-20T05:58:14;-0.90;99.90
12578;DHT22;6354;51.026;8.968;2022-11-20T06:00:42;-0.90;99.90
12578;DHT22;6354;51.026;8.968;2022-11-20T06:03:10;-0.80;99.90
12578;DHT22;6354;51.026;8.968;2022-11-20T06:05:38;-0.70;99.90
12578;DHT22;6354;51.026;8.968;2022-11-20T06:08:06;-0.70;99.90
12578;DHT22;6354;51.026;8.968;2022-11-20T06:10:34;-0.70;99.90
12578;DHT22;6354;51.026;8.968;2022-11-20T06:13:02;-0.70;99.90
12578;DHT22;6354;51.026;8.968;2022-11-20T06:15:31;-0.70;99.90
12578;DHT22;6354;51.026;8.968;2022-11-20T06:17:59;-0.60;99.90
12578;DHT22;6354;51.026;8.968;2022-11-20T06:20:27;-0.60;99.90
12578;DHT22;6354;51.026;8.968;2022-11-20T06:22:56;-0.60;99.90
12578;DHT22;6354;51.026;8.968;2022-11-20T06:25:24;-0.60;99.90
12578;DHT22;6354;51.026;8.968;2022-11-20T06:27:52;-0.60;99.90
12578;DHT22;6354;51.026;8.968;2022-11-20T06:30:20;-0.60;99.90
12578;DHT22;6354;51.026;8.968;2022-11-20T06:32:49;-0.50;99.90
12578;DHT22;6354;51.026;8.968;2022-11-20T06:35:17;-0.60;99.90
12578;DHT22;6354;51.026;8.968;2022-11-20T06:37:45;-0.60;99.90
12578;DHT22;6354;51.026;8.968;2022-11-20T06:40:13;-0.60;99.90
12578;DHT22;6354;51.026;8.968;2022-11-20T06:42:41;-0.50;99.90
12578;DHT22;6354;51.026;8.968;2022-11-20T06:45:10;-0.50;99.90
12578;DHT22;6354;51.026;8.968;2022-11-20T06:47:38;-0.50;99.90
12578;DHT22;6354;51.026;8.968;2022-11-20T06:50:08;-0.40;99.90
12578;DHT22;6354;51.026;8.968;2022-11-20T06:52:36;-0.50;99.90
12578;DHT22;6354;51.026;8.968;2022-11-20T06:55:09;-0.50;99.90
12578;DHT22;6354;51.026;8.968;2022-11-20T06:57:37;-0.50;99.90
12578;DHT22;6354;51.026;8.968;2022-11-20T07:00:06;-0.50;99.90
12578;DHT22;6354;51.026;8.968;2022-11-20T07:02:34;-0.40;99.90
12578;DHT22;6354;51.026;8.968;2022-11-20T07:05:03;-0.40;99.90
12578;DHT22;6354;51.026;8.968;2022-11-20T07:07:32;-0.30;99.90
12578;DHT22;6354;51.026;8.968;2022-11-20T07:10:00;-0.30;99.90
12578;DHT22;6354;51.026;8.968;2022-11-20T07:12:29;-0.30;99.90
12578;DHT22;6354;51.026;8.968;2022-11-20T07:14:57;-0.30;99.90
12578;DHT22;6354;51.026;8.968;2022-11-20T07:17:26;-0.30;99.90
12578;DHT22;6354;51.026;8.968;2022-11-20T07:19:54;-0.30;99.90
12578;DHT22;6354;51.026;8.968;2022-11-20T07:22:23;-0.30;99.90
12578;DHT22;6354;51.026;8.968;2022-11-20T07:24:53;-0.30;99.90
12578;DHT22;6354;51.026;8.968;2022-11-20T07:27:21;-0.20;99.90
12578;DHT22;6354;51.026;8.968;2022-11-20T07:29:49;-0.20;99.90
12578;DHT22;6354;51.026;8.968;2022-11-20T07:32:18;-0.10;99.90
12578;DHT22;6354;51.026;8.968;2022-11-20T07:34:46;-0.10;99.90
12578;DHT22;6354;51.026;8.968;2022-11-20T07:37:14;-0.10;99.90
12578;DHT22;6354;51.026;8.968;2022-11-20T07:39:42;-0.10;99.90
12578;DHT22;6354;51.026;8.968;2022-11-20T07:42:12;-0.20;99.90
12578;DHT22;6354;51.026;8.968;2022-11-20T07:44:40;0.00;99.90
12578;DHT22;6354;51.026;8.968;2022-11-20T07:47:08;-0.10;99.90
12578;DHT22;6354;51.026;8.968;2022-11-20T07:49:36;-0.10;99.90
12578;DHT22;6354;51.026;8.968;2022-11-20T07:52:04;0.00;99.90
12578;DHT22;6354;51.026;8.968;2022-11-20T07:54:32;0.00;99.90
12578;DHT22;6354;51.026;8.968;2022-11-20T07:57:00;0.00;99.90
12578;DHT22;6354;51.026;8.968;2022-11-20T07:59:29;0.10;99.90
12578;DHT22;6354;51.026;8.968;2022-11-20T08:01:57;0.10;99.90
12578;DHT22;6354;51.026;8.968;2022-11-20T08:04:25;0.10;99.90
12578;DHT22;6354;51.026;8.968;2022-11-20T08:06:53;0.20;99.90
12578;DHT22;6354;51.026;8.968;2022-11-20T08:09:21;0.20;99.90
12578;DHT22;6354;51.026;8.968;2022-11-20T08:11:49;0.30;99.90
12578;DHT22;6354;51.026;8.968;2022-11-20T08:14:36;0.20;99.90
12578;DHT22;6354;51.026;8.968;2022-11-20T08:17:04;0.20;99.90
12578;DHT22;6354;51.026;8.968;2022-11-20T08:19:32;0.30;99.90
12578;DHT22;6354;51.026;8.968;2022-11-20T08:22:00;0.30;99.90
12578;DHT22;6354;51.026;8.968;2022-11-20T08:24:28;0.40;99.90
12578;DHT22;6354;51.026;8.968;2022-11-20T08:26:57;0.40;99.90
12578;DHT22;6354;51.026;8.968;2022-11-20T08:29:26;0.50;99.90
12578;DHT22;6354;51.026;8.968;2022-11-20T08:31:55;0.50;99.90
12578;DHT22;6354;51.026;8.968;2022-11-20T08:34:23;0.50;99.90
12578;DHT22;6354;51.026;8.968;2022-11-20T08:36:51;0.50;99.90
12578;DHT22;6354;51.026;8.968;2022-11-20T08:39:19;0.50;99.90
12578;DHT22;6354;51.026;8.968;2022-11-20T08:41:48;0.50;99.90
12578;DHT22;6354;51.026;8.968;2022-11-20T08:44:16;0.60;99.90
12578;DHT22;6354;51.026;8.968;2022-11-20T08:46:44;0.60;99.90
12578;DHT22;6354;51.026;8.968;2022-11-20T08:49:15;0.60;99.90
12578;DHT22;6354;51.026;8.968;2022-11-20T08:51:44;0.50;99.90
12578;DHT22;6354;51.026;8.968;2022-11-20T08:54:14;0.50;99.90
12578;DHT22;6354;51.026;8.968;2022-11-20T08:56:45;0.50;99.90
12578;DHT22;6354;51.026;8.968;2022-11-20T08:59:14;0.50;99.90
12578;DHT22;6354;51.026;8.968;2022-11-20T09:02:02;0.60;99.90
12578;DHT22;6354;51.026;8.968;2022-11-20T09:04:31;0.60;99.90
12578;DHT22;6354;51.026;8.968;2022-11-20T09:07:00;0.60;99.90
12578;DHT22;6354;51.026;8.968;2022-11-20T09:09:28;0.60;99.90
12578;DHT22;6354;51.026;8.968;2022-11-20T09:11:56;0.70;99.90
12578;DHT22;6354;51.026;8.968;2022-11-20T09:14:24;0.80;99.90
12578;DHT22;6354;51.026;8.968;2022-11-20T09:16:56;0.80;99.90
12578;DHT22;6354;51.026;8.968;2022-11-20T09:19:24;0.80;99.90
12578;DHT22;6354;51.026;8.968;2022-11-20T09:22:03;0.80;99.90
12578;DHT22;6354;51.026;8.968;2022-11-20T09:24:31;0.80;99.90
12578;DHT22;6354;51.026;8.968;2022-11-20T09:27:02;0.90;99.90
12578;DHT22;6354;51.026;8.968;2022-11-20T09:29:30;0.90;99.90
12578;DHT22;6354;51.026;8.968;2022-11-20T09:31:58;0.90;99.90
12578;DHT22;6354;51.026;8.968;2022-11-20T09:34:26;1.00;99.90
12578;DHT22;6354;51.026;8.968;2022-11-20T09:36:54;1.00;99.90
12578;DHT22;6354;51.026;8.968;2022-11-20T09:39:27;1.00;99.90
12578;DHT22;6354;51.026;8.968;2022-11-20T09:42:20;1.00;99.90
12578;DHT22;6354;51.026;8.968;2022-11-20T09:45:10;1.00;99.90
12578;DHT22;6354;51.026;8.968;2022-11-20T09:47:55;1.10;99.90
12578;DHT22;6354;51.026;8.968;2022-11-20T09:50:31;1.10;99.90
12578;DHT22;6354;51.026;8.968;2022-11-20T09:53:15;1.20;99.90
12578;DHT22;6354;51.026;8.968;2022-11-20T09:55:46;1.30;99.90
12578;DHT22;6354;51.026;8.968;2022-11-20T09:58:19;1.30;99.90
12578;DHT22;6354;51.026;8.968;2022-11-20T10:00:51;1.40;99.90
12578;DHT22;6354;51.026;8.968;2022-11-20T10:03:30;1.40;99.90
12578;DHT22;6354;51.026;8.968;2022-11-20T10:06:05;1.40;99.90
12578;DHT22;6354;51.026;8.968;2022-11-20T10:08:41;1.50;99.90
12578;DHT22;6354;51.026;8.968;2022-11-20T10:11:18;1.40;99.90
12578;DHT22;6354;51.026;8.968;2022-11-20T10:13:54;1.50;99.90
12578;DHT22;6354;51.026;8.968;2022-11-20T10:16:35;1.50;99.90
12578;DHT22;6354;51.026;8.968;2022-11-20T10:19:18;1.50;99.90
12578;DHT22;6354;51.026;8.968;2022-11-20T10:21:55;1.50;99.90
12578;DHT22;6354;51.026;8.968;2022-11-20T10:24:38;1.60;99.90
12578;DHT22;6354;51.026;8.968;2022-11-20T10:27:26;1.70;99.90
12578;DHT22;6354;51.026;8.968;2022-11-20T10:30:01;1.70;99.90
12578;DHT22;6354;51.026;8.968;2022-11-20T10:32:35;1.70;99.90
12578;DHT22;6354;51.026;8.968;2022-11-20T10:35:09;1.80;99.90
12578;DHT22;6354;51.026;8.968;2022-11-20T10:37:44;1.80;99.90
12578;DHT22;6354;51.026;8.968;2022-11-20T10:40:20;1.90;99.90
12578;DHT22;6354;51.026;8.968;2022-11-20T10:42:53;1.90;99.90
12578;DHT22;6354;51.026;8.968;2022-11-20T10:45:33;2.00;99.90
12578;DHT22;6354;51.026;8.968;2022-11-20T10:48:12;2.00;99.90
12578;DHT22;6354;51.026;8.968;2022-11-20T10:50:55;1.90;99.90
12578;DHT22;6354;51.026;8.968;2022-11-20T10:53:39;2.00;99.90
12578;DHT22;6354;51.026;8.968;2022-11-20T10:56:15;2.10;99.90
12578;DHT22;6354;51.026;8.968;2022-11-20T10:59:00;2.10;99.90
12578;DHT22;6354;51.026;8.968;2022-11-20T11:01:30;2.20;99.90
12578;DHT22;6354;51.026;8.968;2022-11-20T11:03:58;2.20;99.90
12578;DHT22;6354;51.026;8.968;2022-11-20T11:06:32;2.20;99.90
12578;DHT22;6354;51.026;8.968;2022-11-20T11:09:10;2.20;99.90
12578;DHT22;6354;51.026;8.968;2022-11-20T11:11:39;2.10;99.90
12578;DHT22;6354;51.026;8.968;2022-11-20T11:14:11;2.30;99.90
12578;DHT22;6354;51.026;8.968;2022-11-20T11:16:50;2.30;99.90
12578;DHT22;6354;51.026;8.968;2022-11-20T11:19:19;2.30;99.90
12578;DHT22;6354;51.026;8.968;2022-11-20T11:21:51;2.30;99.90
12578;DHT22;6354;51.026;8.968;2022-11-20T11:24:23;2.40;99.90
12578;DHT22;6354;51.026;8.968;2022-11-20T11:27:12;2.50;99.90
12578;DHT22;6354;51.026;8.968;2022-11-20T11:29:45;2.50;99.90
12578;DHT22;6354;51.026;8.968;2022-11-20T11:32:15;2.50;99.90
12578;DHT22;6354;51.026;8.968;2022-11-20T11:34:43;2.50;99.90
12578;DHT22;6354;51.026;8.968;2022-11-20T11:37:16;2.50;99.90
12578;DHT22;6354;51.026;8.968;2022-11-20T11:39:46;2.40;99.90
12578;DHT22;6354;51.026;8.968;2022-11-20T11:42:39;2.40;99.90
12578;DHT22;6354;51.026;8.968;2022-11-20T11:45:14;2.40;99.90
12578;DHT22;6354;51.026;8.968;2022-11-20T11:47:46;2.40;99.90
12578;DHT22;6354;51.026;8.968;2022-11-20T11:50:17;2.50;99.90
12578;DHT22;6354;51.026;8.968;2022-11-20T11:52:50;2.40;99.90
12578;DHT22;6354;51.026;8.968;2022-11-20T11:55:28;2.40;99.90
12578;DHT22;6354;51.026;8.968;2022-11-20T11:58:09;2.60;99.90
12578;DHT22;6354;51.026;8.968;2022-11-20T12:00:47;2.60;99.90
12578;DHT22;6354;51.026;8.968;2022-11-20T12:03:21;2.60;99.90
12578;DHT22;6354;51.026;8.968;2022-11-20T12:05:55;2.60;99.90
12578;DHT22;6354;51.026;8.968;2022-11-20T12:08:27;2.60;99.90
12578;DHT22;6354;51.026;8.968;2022-11-20T12:11:03;2.50;99.90
12578;DHT22;6354;51.026;8.968;2022-11-20T12:13:43;2.60;99.90
12578;DHT22;6354;51.026;8.968;2022-11-20T12:16:16;2.60;99.90
12578;DHT22;6354;51.026;8.968;2022-11-20T12:18:48;2.70;99.90
12578;DHT22;6354;51.026;8.968;2022-11-20T12:21:25;2.70;99.90
12578;DHT22;6354;51.026;8.968;2022-11-20T12:24:15;2.80;99.90
12578;DHT22;6354;51.026;8.968;2022-11-20T12:27:01;2.80;99.90
12578;DHT22;6354;51.026;8.968;2022-11-20T12:29:40;2.80;99.90
12578;DHT22;6354;51.026;8.968;2022-11-20T12:32:47;2.90;99.90
12578;DHT22;6354;51.026;8.968;2022-11-20T12:35:43;3.00;99.90
12578;DHT22;6354;51.026;8.968;2022-11-20T12:38:29;3.00;99.90
12578;DHT22;6354;51.026;8.968;2022-11-20T12:41:05;3.20;99.90
12578;DHT22;6354;51.026;8.968;2022-11-20T12:43:40;3.20;99.90
12578;DHT22;6354;51.026;8.968;2022-11-20T12:46:33;3.30;99.90
12578;DHT22;6354;51.026;8.968;2022-11-20T12:49:16;3.20;99.90
12578;DHT22;6354;51.026;8.968;2022-11-20T12:52:11;3.00;99.90
12578;DHT22;6354;51.026;8.968;2022-11-20T12:55:13;3.00;99.90
12578;DHT22;6354;51.026;8.968;2022-11-20T12:57:48;2.90;99.90
12578;DHT22;6354;51.026;8.968;2022-11-20T13:00:19;2.90;99.90
12578;DHT22;6354;51.026;8.968;2022-11-20T13:03:08;2.90;99.90
12578;DHT22;6354;51.026;8.968;2022-11-20T13:05:50;3.10;99.90
12578;DHT22;6354;51.026;8.968;2022-11-20T13:08:23;3.00;99.90
12578;DHT22;6354;51.026;8.968;2022-11-20T13:10:57;3.00;99.90
12578;DHT22;6354;51.026;8.968;2022-11-20T13:13:35;3.10;99.90
12578;DHT22;6354;51.026;8.968;2022-11-20T13:16:12;3.10;99.90
12578;DHT22;6354;51.026;8.968;2022-11-20T13:18:43;3.10;99.90
12578;DHT22;6354;51.026;8.968;2022-11-20T13:21:18;3.10;99.90
12578;DHT22;6354;51.026;8.968;2022-11-20T13:23:46;3.20;99.90
12578;DHT22;6354;51.026;8.968;2022-11-20T13:26:17;3.20;99.90
12578;DHT22;6354;51.026;8.968;2022-11-20T13:28:48;3.10;99.90
12578;DHT22;6354;51.026;8.968;2022-11-20T13:31:30;3.10;99.90
12578;DHT22;6354;51.026;8.968;2022-11-20T13:34:01;3.10;99.90
12578;DHT22;6354;51.026;8.968;2022-11-20T13:36:31;3.10;99.90
12578;DHT22;6354;51.026;8.968;2022-11-20T13:39:01;3.10;99.90
12578;DHT22;6354;51.026;8.968;2022-11-20T13:41:31;3.10;99.90
12578;DHT22;6354;51.026;8.968;2022-11-20T13:44:12;3.00;99.90
12578;DHT22;6354;51.026;8.968;2022-11-20T13:46:42;3.10;99.90
12578;DHT22;6354;51.026;8.968;2022-11-20T13:49:23;3.00;99.90
12578;DHT22;6354;51.026;8.968;2022-11-20T13:52:03;3.10;99.90
12578;DHT22;6354;51.026;8.968;2022-11-20T13:58:04;3.00;99.90
12578;DHT22;6354;51.026;8.968;2022-11-20T14:00:44;3.00;99.90
12578;DHT22;6354;51.026;8.968;2022-11-20T14:03:18;3.00;99.90
12578;DHT22;6354;51.026;8.968;2022-11-20T14:06:12;3.00;99.90
12578;DHT22;6354;51.026;8.968;2022-11-20T14:08:47;3.00;99.90
12578;DHT22;6354;51.026;8.968;2022-11-20T14:11:19;2.90;99.90
12578;DHT22;6354;51.026;8.968;2022-11-20T14:13:59;2.90;99.90
12578;DHT22;6354;51.026;8.968;2022-11-20T14:16:29;2.90;99.90
12578;DHT22;6354;51.026;8.968;2022-11-20T14:19:16;2.80;99.90
12578;DHT22;6354;51.026;8.968;2022-11-20T14:21:48;2.80;99.90
12578;DHT22;6354;51.026;8.968;2022-11-20T14:24:20;2.80;99.90
12578;DHT22;6354;51.026;8.968;2022-11-20T14:26:50;2.80;99.90
12578;DHT22;6354;51.026;8.968;2022-11-20T14:29:21;2.80;99.90
12578;DHT22;6354;51.026;8.968;2022-11-20T14:31:52;2.80;99.90
12578;DHT22;6354;51.026;8.968;2022-11-20T14:34:22;2.90;99.90
12578;DHT22;6354;51.026;8.968;2022-11-20T14:36:55;2.90;99.90
12578;DHT22;6354;51.026;8.968;2022-11-20T14:39:30;2.90;99.90
12578;DHT22;6354;51.026;8.968;2022-11-20T14:41:59;3.00;99.90
12578;DHT22;6354;51.026;8.968;2022-11-20T14:44:30;2.90;99.90
12578;DHT22;6354;51.026;8.968;2022-11-20T14:47:00;2.80;99.90
12578;DHT22;6354;51.026;8.968;2022-11-20T14:49:30;2.80;99.90
12578;DHT22;6354;51.026;8.968;2022-11-20T14:52:00;2.80;99.90
12578;DHT22;6354;51.026;8.968;2022-11-20T14:54:30;2.90;99.90
12578;DHT22;6354;51.026;8.968;2022-11-20T14:57:01;2.90;99.90
12578;DHT22;6354;51.026;8.968;2022-11-20T14:59:31;2.90;99.90
12578;DHT22;6354;51.026;8.968;2022-11-20T15:02:02;2.90;99.90
12578;DHT22;6354;51.026;8.968;2022-11-20T15:04:31;3.00;99.90
12578;DHT22;6354;51.026;8.968;2022-11-20T15:07:00;3.00;99.90
12578;DHT22;6354;51.026;8.968;2022-11-20T15:09:29;3.00;99.90
12578;DHT22;6354;51.026;8.968;2022-11-20T15:11:59;3.00;99.90
12578;DHT22;6354;51.026;8.968;2022-11-20T15:14:29;2.90;99.90
12578;DHT22;6354;51.026;8.968;2022-11-20T15:16:59;3.00;99.90
12578;DHT22;6354;51.026;8.968;2022-11-20T15:19:27;3.00;99.90
12578;DHT22;6354;51.026;8.968;2022-11-20T15:21:55;3.00;99.90
12578;DHT22;6354;51.026;8.968;2022-11-20T15:24:23;3.00;99.90
12578;DHT22;6354;51.026;8.968;2022-11-20T15:26:53;3.00;99.90
12578;DHT22;6354;51.026;8.968;2022-11-20T15:29:23;2.90;99.90
12578;DHT22;6354;51.026;8.968;2022-11-20T15:31:51;3.00;99.90
12578;DHT22;6354;51.026;8.968;2022-11-20T15:34:20;3.00;99.90
12578;DHT22;6354;51.026;8.968;2022-11-20T15:36:49;3.00;99.90
12578;DHT22;6354;51.026;8.968;2022-11-20T15:39:17;3.00;99.90
12578;DHT22;6354;51.026;8.968;2022-11-20T15:41:45;3.00;99.90
12578;DHT22;6354;51.026;8.968;2022-11-20T15:44:15;2.90;99.90
12578;DHT22;6354;51.026;8.968;2022-11-20T15:46:43;2.90;99.90
12578;DHT22;6354;51.026;8.968;2022-11-20T15:49:14;2.90;99.90
12578;DHT22;6354;51.026;8.968;2022-11-20T15:51:44;3.00;99.90
12578;DHT22;6354;51.026;8.968;2022-11-20T15:54:16;3.00;99.90
12578;DHT22;6354;51.026;8.968;2022-11-20T15:56:47;3.00;99.90
12578;DHT22;6354;51.026;8.968;2022-11-20T15:59:17;3.00;99.90
12578;DHT22;6354;51.026;8.968;2022-11-20T16:01:45;3.00;99.90
12578;DHT22;6354;51.026;8.968;2022-11-20T16:04:15;3.00;99.90
12578;DHT22;6354;51.026;8.968;2022-11-20T16:06:45;3.00;99.90
12578;DHT22;6354;51.026;8.968;2022-11-20T16:09:13;3.00;99.90
12578;DHT22;6354;51.026;8.968;2022-11-20T16:11:41;3.00;99.90
12578;DHT22;6354;51.026;8.968;2022-11-20T16:14:10;3.00;99.90
12578;DHT22;6354;51.026;8.968;2022-11-20T16:16:57;3.00;99.90
12578;DHT22;6354;51.026;8.968;2022-11-20T16:19:25;3.00;99.90
12578;DHT22;6354;51.026;8.968;2022-11-20T16:21:53;3.00;99.90
12578;DHT22;6354;51.026;8.968;2022-11-20T16:24:28;3.00;99.90
12578;DHT22;6354;51.026;8.968;2022-11-20T16:26:56;2.90;99.90